createdAt,value
2018-10-11T00:01:13.356Z,101283.91
2018-10-11T00:04:17.653Z,101277.05
2018-10-11T00:07:21.776Z,101281.47
2018-10-11T00:10:26.078Z,101277.76
2018-10-11T00:13:30.058Z,101271.47
2018-10-11T00:16:34.273Z,101281.42
2018-10-11T00:19:38.319Z,101282.01
2018-10-11T00:22:42.364Z,101284.30
2018-10-11T00:25:46.740Z,101285.30
2018-10-11T00:28:50.916Z,101283.30
2018-10-11T00:31:54.939Z,101279.14
2018-10-11T00:34:59.255Z,101282.34
2018-10-11T00:38:03.323Z,101282.88
2018-10-11T00:41:08.003Z,101286.88
2018-10-11T00:44:14.840Z,101279.38
2018-10-11T00:47:19.068Z,101273.93
2018-10-11T00:50:23.239Z,101269.81
2018-10-11T00:53:27.232Z,101274.56
2018-10-11T00:56:31.221Z,101271.39
2018-10-11T00:59:35.197Z,101259.95
2018-10-11T01:02:39.746Z,101256.59
2018-10-11T01:05:44.500Z,101252.05
2018-10-11T01:08:49.062Z,101246.14
2018-10-11T01:11:53.061Z,101247.88
2018-10-11T01:14:57.166Z,101238.19
2018-10-11T01:18:01.157Z,101236.11
2018-10-11T01:21:05.421Z,101232.78
2018-10-11T01:24:09.882Z,101230.74
2018-10-11T01:27:14.418Z,101229.08
2018-10-11T01:30:18.504Z,101230.44
2018-10-11T01:33:22.991Z,101235.14
2018-10-11T01:36:26.918Z,101229.23
2018-10-11T01:39:30.901Z,101227.16
2018-10-11T01:42:35.140Z,101225.88
2018-10-11T01:45:39.243Z,101224.66
2018-10-11T01:48:43.582Z,101224.20
2018-10-11T01:51:47.859Z,101209.73
2018-10-11T01:54:52.099Z,101205.87
2018-10-11T01:57:58.277Z,101191.69
2018-10-11T02:01:03.389Z,101183.13
2018-10-11T02:04:08.495Z,101190.41
2018-10-11T02:07:12.607Z,101183.58
2018-10-11T02:10:16.611Z,101183.58
2018-10-11T02:13:20.606Z,101176.77
2018-10-11T02:16:24.891Z,101170.77
2018-10-11T02:19:29.464Z,101163.50
2018-10-11T02:22:34.408Z,101163.95
2018-10-11T02:25:38.668Z,101152.36
2018-10-11T02:28:42.680Z,101152.73
2018-10-11T02:31:46.892Z,101143.80
2018-10-11T02:34:51.264Z,101138.10
2018-10-11T02:37:55.433Z,101137.73
2018-10-11T02:40:59.654Z,101138.19
2018-10-11T02:44:03.723Z,101129.16
2018-10-11T02:47:07.770Z,101121.34
2018-10-11T02:50:11.803Z,101119.60
2018-10-11T02:53:15.796Z,101111.04
2018-10-11T02:56:20.581Z,101109.30
2018-10-11T02:59:30.642Z,101104.59
2018-10-11T03:02:36.269Z,101106.26
2018-10-11T03:05:42.704Z,101097.23
2018-10-11T03:08:47.189Z,101107.09
2018-10-11T03:11:51.554Z,101108.84
2018-10-11T03:14:55.868Z,101110.20
2018-10-11T03:21:07.951Z,101108.46
2018-10-11T03:24:12.542Z,101096.87
2018-10-11T03:27:16.792Z,101093.53
2018-10-11T03:30:20.812Z,101090.96
2018-10-11T03:33:25.096Z,101094.45
2018-10-11T03:36:29.267Z,101094.45
2018-10-11T03:39:33.478Z,101097.94
2018-10-11T03:42:37.493Z,101100.57
2018-10-11T03:45:41.503Z,101095.88
2018-10-11T03:48:45.815Z,101094.20
2018-10-11T03:51:49.811Z,101105.44
2018-10-11T03:54:54.198Z,101105.06
2018-10-11T03:57:58.686Z,101096.95
2018-10-11T04:01:03.010Z,101097.78
2018-10-11T04:04:06.974Z,101090.88
2018-10-11T04:07:11.126Z,101095.66
2018-10-11T04:10:15.275Z,101082.78
2018-10-11T04:13:19.431Z,101082.03
2018-10-11T04:16:23.575Z,101079.08
2018-10-11T04:19:27.730Z,101081.73
2018-10-11T04:22:31.670Z,101071.42
2018-10-11T04:25:35.802Z,101068.94
2018-10-11T04:28:39.727Z,101070.64
2018-10-11T04:31:43.691Z,101071.19
2018-10-11T04:34:47.792Z,101076.80
2018-10-11T04:37:51.934Z,101072.18
2018-10-11T04:40:56.148Z,101074.38
2018-10-11T04:44:00.315Z,101070.89
2018-10-11T04:47:05.363Z,101068.94
2018-10-11T04:50:10.393Z,101073.26
2018-10-11T04:53:15.039Z,101073.80
2018-10-11T04:56:19.023Z,101070.77
2018-10-11T04:59:23.316Z,101068.31
2018-10-11T05:02:27.248Z,101067.48
2018-10-11T05:05:31.307Z,101065.90
2018-10-11T05:08:38.770Z,101072.88
2018-10-11T05:11:43.632Z,101081.06
2018-10-11T05:14:47.682Z,101090.99
2018-10-11T05:17:51.944Z,101096.64
2018-10-11T05:20:55.932Z,101096.80
2018-10-11T05:24:00.631Z,101097.72
2018-10-11T05:27:04.731Z,101087.95
2018-10-11T05:30:08.982Z,101096.21
2018-10-11T05:33:13.255Z,101098.79
2018-10-11T05:36:17.439Z,101095.91
2018-10-11T05:39:21.735Z,101102.86
2018-10-11T05:42:25.691Z,101096.88
2018-10-11T05:45:30.194Z,101110.28
2018-10-11T05:48:34.492Z,101111.65
2018-10-11T05:51:38.902Z,101109.53
2018-10-11T05:54:42.877Z,101107.03
2018-10-11T05:57:47.046Z,101105.75
2018-10-11T06:00:51.077Z,101112.27
2018-10-11T06:03:55.807Z,101107.23
2018-10-11T06:06:59.755Z,101108.98
2018-10-11T06:10:04.291Z,101106.03
2018-10-11T06:13:09.553Z,101102.63
2018-10-11T06:16:14.853Z,101102.70
2018-10-11T06:19:19.341Z,101094.97
2018-10-11T06:22:23.505Z,101095.80
2018-10-11T06:25:27.673Z,101092.02
2018-10-11T06:28:31.619Z,101098.01
2018-10-11T06:31:35.841Z,101086.04
2018-10-11T06:34:39.788Z,101093.69
2018-10-11T06:37:44.362Z,101095.43
2018-10-11T06:40:48.290Z,101101.48
2018-10-11T06:43:52.267Z,101102.70
2018-10-11T06:46:56.410Z,101093.31
2018-10-11T06:50:01.658Z,101097.09
2018-10-11T06:53:06.114Z,101100.80
2018-10-11T06:56:10.276Z,101101.17
2018-10-11T06:59:14.236Z,101104.91
2018-10-11T07:02:18.232Z,101098.32
2018-10-11T07:05:22.180Z,101106.34
2018-10-11T07:08:26.968Z,101119.02
2018-10-11T07:11:30.907Z,101114.16
2018-10-11T07:14:35.308Z,101104.53
2018-10-11T07:17:40.155Z,101107.73
2018-10-11T07:20:44.286Z,101101.51
2018-10-11T07:23:48.267Z,101102.97
2018-10-11T07:26:52.444Z,101096.66
2018-10-11T07:29:56.510Z,101111.45
2018-10-11T07:33:00.501Z,101112.49
2018-10-11T07:36:04.448Z,101119.02
2018-10-11T07:39:11.276Z,101113.99
2018-10-11T07:42:15.452Z,101102.84
2018-10-11T07:45:19.495Z,101108.95
2018-10-11T07:48:23.473Z,101113.36
2018-10-11T07:51:27.419Z,101107.81
2018-10-11T07:54:34.379Z,101112.09
2018-10-11T07:57:38.871Z,101112.11
2018-10-11T08:00:42.823Z,101105.72
2018-10-11T08:03:46.858Z,101106.98
2018-10-11T08:06:50.856Z,101120.28
2018-10-11T08:09:55.180Z,101122.00
2018-10-11T08:12:59.198Z,101116.44
2018-10-11T08:16:03.463Z,101119.81
2018-10-11T08:19:08.273Z,101122.33
2018-10-11T08:22:12.159Z,101118.70
2018-10-11T08:25:17.050Z,101096.79
2018-10-11T08:28:20.885Z,101088.53
2018-10-11T08:31:25.147Z,101089.67
2018-10-11T08:34:30.009Z,101096.91
2018-10-11T08:37:34.417Z,101097.64
2018-10-11T08:40:38.715Z,101095.86
2018-10-11T08:43:42.702Z,101086.84
2018-10-11T08:46:46.855Z,101097.72
2018-10-11T08:49:51.263Z,101103.66
2018-10-11T08:52:55.265Z,101112.36
2018-10-11T08:55:59.343Z,101103.39
2018-10-11T08:59:03.701Z,101101.45
2018-10-11T09:02:07.876Z,101103.69
2018-10-11T09:05:12.098Z,101102.48
2018-10-11T09:08:16.140Z,101087.06
2018-10-11T09:11:20.273Z,101086.03
2018-10-11T09:14:24.364Z,101092.67
2018-10-11T09:17:28.597Z,101087.80
2018-10-11T09:20:32.725Z,101086.77
2018-10-11T09:23:36.826Z,101084.36
2018-10-11T09:26:40.887Z,101089.34
2018-10-11T09:29:45.190Z,101082.34
2018-10-11T09:32:49.408Z,101081.05
2018-10-11T09:35:53.437Z,101079.65
2018-10-11T09:38:57.464Z,101083.99
2018-10-11T09:42:01.553Z,101084.83
2018-10-11T09:45:06.292Z,101074.84
2018-10-11T09:48:10.291Z,101080.94
2018-10-11T09:51:14.271Z,101070.95
2018-10-11T09:54:18.290Z,101060.61
2018-10-11T09:57:32.074Z,101054.41
2018-10-11T10:00:41.438Z,101057.45
2018-10-11T10:03:45.657Z,101055.03
2018-10-11T10:06:49.669Z,101052.27
2018-10-11T10:09:53.698Z,101057.98
2018-10-11T10:12:57.866Z,101059.28
2018-10-11T10:16:01.822Z,101060.14
2018-10-11T10:19:05.844Z,101055.59
2018-10-11T10:25:43.666Z,101068.70
2018-10-11T10:28:47.610Z,101077.95
2018-10-11T10:31:51.847Z,101078.78
2018-10-11T10:34:55.807Z,101064.61
2018-10-11T10:38:00.075Z,101055.55
2018-10-11T10:41:04.014Z,101058.53
2018-10-11T10:44:08.306Z,101057.70
2018-10-11T10:47:12.240Z,101050.20
2018-10-11T10:50:16.521Z,101044.46
2018-10-11T10:53:20.453Z,101036.95
2018-10-11T10:56:24.562Z,101043.83
2018-10-11T10:59:28.901Z,101049.30
2018-10-11T11:02:32.854Z,101042.25
2018-10-11T11:05:36.781Z,101035.22
2018-10-11T11:08:40.721Z,101034.80
2018-10-11T11:11:45.033Z,101034.73
2018-10-11T11:14:49.126Z,101024.38
2018-10-11T11:17:53.058Z,101019.45
2018-10-11T11:20:57.017Z,101015.94
2018-10-11T11:24:01.599Z,101007.95
2018-10-11T11:27:05.535Z,100999.63
2018-10-11T11:30:09.526Z,101008.50
2018-10-11T11:33:13.518Z,100998.30
2018-10-11T11:36:17.921Z,101004.20
2018-10-11T11:39:22.047Z,100996.22
2018-10-11T11:42:26.004Z,100989.93
2018-10-11T11:45:29.968Z,100982.30
2018-10-11T11:48:33.915Z,100976.55
2018-10-11T11:51:37.871Z,100975.33
2018-10-11T11:54:41.827Z,100982.89
2018-10-11T11:57:45.795Z,100991.38
2018-10-11T12:00:50.071Z,100992.14
2018-10-11T12:03:54.563Z,100990.98
2018-10-11T12:06:58.517Z,100995.49
2018-10-11T12:10:02.682Z,101023.60
2018-10-11T12:13:08.943Z,101014.31
2018-10-11T12:16:13.230Z,101010.22
2018-10-11T12:19:17.427Z,101008.62
2018-10-11T12:22:21.410Z,101018.31
2018-10-11T12:25:25.707Z,101013.02
2018-10-11T12:28:30.023Z,101023.64
2018-10-11T12:31:34.122Z,101021.69
2018-10-11T12:34:38.067Z,101013.80
2018-10-11T12:37:42.063Z,101012.65
2018-10-11T12:40:46.193Z,101015.02
2018-10-11T12:43:50.340Z,101004.00
2018-10-11T12:46:54.306Z,101011.48
2018-10-11T12:49:58.237Z,101003.87
2018-10-11T12:53:02.730Z,101003.18
2018-10-11T12:56:07.107Z,101011.92
2018-10-11T12:59:11.040Z,101008.67
2018-10-11T13:02:14.978Z,101009.17
2018-10-11T13:05:19.267Z,101004.59
2018-10-11T13:08:23.198Z,101007.34
2018-10-11T13:11:27.431Z,100998.76
2018-10-11T13:14:31.722Z,100998.81
2018-10-11T13:17:41.823Z,100996.34
2018-10-11T13:20:39.830Z,100987.51
2018-10-11T13:23:43.777Z,100982.36
2018-10-11T13:26:47.914Z,100991.11
2018-10-11T13:29:52.425Z,101004.25
2018-10-11T13:32:56.374Z,101010.52
2018-10-11T13:36:00.622Z,101006.39
2018-10-11T13:39:07.043Z,101004.78
2018-10-11T13:42:10.982Z,100999.95
2018-10-11T13:45:15.143Z,101005.03
2018-10-11T13:48:19.112Z,101004.36
2018-10-11T13:51:23.036Z,101007.91
2018-10-11T13:54:27.270Z,101004.14
2018-10-11T13:57:31.488Z,101008.08
2018-10-11T14:00:35.802Z,101011.30
2018-10-11T14:03:39.693Z,101015.47
2018-10-11T14:06:43.651Z,101013.47
2018-10-11T14:09:48.140Z,101017.61
2018-10-11T14:12:52.100Z,101016.55
2018-10-11T14:15:56.056Z,101024.22
2018-10-11T14:19:00.408Z,101021.42
2018-10-11T14:22:04.758Z,101015.63
2018-10-11T14:25:08.912Z,101009.84
2018-10-11T14:28:12.906Z,101006.19
2018-10-11T14:31:16.843Z,100994.02
2018-10-11T14:34:21.082Z,100983.06
2018-10-11T14:37:25.186Z,100985.08
2018-10-11T14:44:04.923Z,100981.89
2018-10-11T14:47:09.179Z,100982.23
2018-10-11T14:50:13.342Z,100981.30
2018-10-11T14:53:17.517Z,100977.28
2018-10-11T14:56:21.652Z,100966.88
2018-10-11T14:59:25.621Z,100972.55
2018-10-11T15:02:30.099Z,100979.41
2018-10-11T15:05:34.122Z,100988.14
2018-10-11T15:08:38.399Z,100988.97
2018-10-11T15:11:42.590Z,100980.94
2018-10-11T15:14:46.730Z,100980.00
2018-10-11T15:17:50.951Z,100982.71
2018-10-11T15:20:55.224Z,100983.66
2018-10-11T15:23:59.190Z,100991.58
2018-10-11T15:27:03.581Z,100992.98
2018-10-11T15:30:07.770Z,100988.70
2018-10-11T15:33:12.100Z,100991.89
2018-10-11T15:36:16.079Z,100989.89
2018-10-11T15:39:20.439Z,100987.41
2018-10-11T15:42:24.616Z,100987.64
2018-10-11T15:45:28.742Z,100984.78
2018-10-11T15:48:32.696Z,100981.00
2018-10-11T15:51:37.138Z,100983.47
2018-10-11T15:54:41.083Z,100988.91
2018-10-11T15:57:45.063Z,100997.28
2018-10-11T16:00:49.055Z,100991.55
2018-10-11T16:03:53.181Z,100991.78
2018-10-11T16:06:57.234Z,100997.30
2018-10-11T16:10:01.449Z,101004.13
2018-10-11T16:13:05.443Z,100996.77
2018-10-11T16:16:09.385Z,101001.84
2018-10-11T16:19:13.319Z,101012.92
2018-10-11T16:22:17.640Z,101015.70
2018-10-11T16:25:21.603Z,101022.61
2018-10-11T16:28:27.303Z,101016.22
2018-10-11T16:31:31.227Z,101019.23
2018-10-11T16:34:35.176Z,101024.95
2018-10-11T16:37:39.118Z,101026.70
2018-10-11T16:40:43.072Z,101030.17
2018-10-11T16:43:47.058Z,101029.43
2018-10-11T16:46:51.011Z,101028.18
2018-10-11T16:49:55.054Z,101036.48
2018-10-11T16:52:59.534Z,101044.66
2018-10-11T16:56:03.504Z,101043.77
2018-10-11T16:59:07.510Z,101045.96
2018-10-11T17:02:11.466Z,101044.81
2018-10-11T17:05:15.485Z,101047.44
2018-10-11T17:08:19.502Z,101055.28
2018-10-11T17:11:23.487Z,101051.89
2018-10-11T17:14:27.735Z,101049.79
2018-10-11T17:17:31.738Z,101049.45
2018-10-11T17:20:36.143Z,101045.62
2018-10-11T17:23:40.122Z,101046.47
2018-10-11T17:26:44.090Z,101038.29
2018-10-11T17:29:48.345Z,101032.66
2018-10-11T17:32:58.818Z,101028.33
2018-10-11T17:36:03.141Z,101029.94
2018-10-11T17:39:08.460Z,101033.77
2018-10-11T17:42:12.577Z,101034.00
2018-10-11T17:45:16.647Z,101032.19
2018-10-11T17:48:20.610Z,101035.05
2018-10-11T17:51:24.583Z,101031.11
2018-10-11T17:54:28.523Z,101043.75
2018-10-11T17:57:32.469Z,101041.00
2018-10-11T18:00:36.442Z,101040.00
2018-10-11T18:03:40.406Z,101034.27
2018-10-11T18:06:44.691Z,101038.81
2018-10-11T18:09:49.093Z,101034.00
2018-10-11T18:12:53.223Z,101040.67
2018-10-11T18:15:57.231Z,101038.75
2018-10-11T18:19:01.375Z,101039.47
2018-10-11T18:22:05.474Z,101041.42
2018-10-11T18:25:09.584Z,101042.55
2018-10-11T18:28:13.575Z,101053.88
2018-10-11T18:31:17.518Z,101051.13
2018-10-11T18:34:21.451Z,101057.78
2018-10-11T18:37:25.378Z,101048.89
2018-10-11T18:40:29.314Z,101049.55
2018-10-11T18:43:33.238Z,101050.67
2018-10-11T18:46:37.160Z,101047.81
2018-10-11T18:49:41.280Z,101045.39
2018-10-11T18:52:45.238Z,101047.70
2018-10-11T18:55:49.157Z,101044.38
2018-10-11T18:58:53.274Z,101046.23
2018-10-11T19:01:57.198Z,101048.09
2018-10-11T19:05:01.136Z,101049.45
2018-10-11T19:08:05.087Z,101047.41
2018-10-11T19:11:09.450Z,101044.56
2018-10-11T19:14:13.390Z,101041.61
2018-10-11T19:17:17.307Z,101047.33
2018-10-11T19:20:21.252Z,101046.50
2018-10-11T19:23:25.347Z,101042.32
2018-10-11T19:26:29.279Z,101050.27
2018-10-11T19:29:33.227Z,101047.41
2018-10-11T19:32:37.442Z,101044.45
2018-10-11T19:35:41.370Z,101042.92
2018-10-11T19:38:45.344Z,101043.47
2018-10-11T19:41:49.403Z,101047.08
2018-10-11T19:44:53.326Z,101042.92
2018-10-11T19:47:57.274Z,101037.08
2018-10-11T19:51:01.215Z,101034.13
2018-10-11T19:54:05.376Z,101035.61
2018-10-11T19:57:09.687Z,101038.66
2018-10-11T20:00:13.814Z,101037.45
2018-10-11T20:03:17.742Z,101050.47
2018-10-11T20:06:21.679Z,101053.97
2018-10-11T20:09:25.625Z,101056.25
2018-10-11T20:12:30.085Z,101051.54
2018-10-11T20:15:34.356Z,101052.55
2018-10-11T20:18:38.557Z,101056.06
2018-10-11T20:21:42.844Z,101058.83
2018-10-11T20:24:46.784Z,101048.59
2018-10-11T20:27:50.711Z,101048.69
2018-10-11T20:30:54.861Z,101055.60
2018-10-11T20:33:58.778Z,101051.41
2018-10-11T20:37:02.724Z,101056.21
2018-10-11T20:40:06.668Z,101056.39
2018-10-11T20:43:10.606Z,101057.31
2018-10-11T20:46:14.901Z,101059.16
2018-10-11T20:49:18.842Z,101067.05
2018-10-11T20:52:22.770Z,101068.52
2018-10-11T20:55:26.701Z,101060.87
2018-10-11T20:58:30.635Z,101064.83
2018-10-11T21:01:34.579Z,101071.37
2018-10-11T21:04:38.499Z,101071.47
2018-10-11T21:07:42.492Z,101073.00
2018-10-11T21:10:46.399Z,101073.64
2018-10-11T21:13:50.355Z,101072.89
2018-10-11T21:16:54.654Z,101063.55
2018-10-11T21:19:58.611Z,101068.05
2018-10-11T21:23:02.742Z,101056.99
2018-10-11T21:26:06.690Z,101062.33
2018-10-11T21:29:10.643Z,101053.44
2018-10-11T21:32:14.596Z,101062.47
2018-10-11T21:35:18.545Z,101051.95
2018-10-11T21:38:22.677Z,101055.08
2018-10-11T21:41:26.605Z,101055.55
2018-10-11T21:44:31.083Z,101057.75
2018-10-11T21:47:35.366Z,101057.44
2018-10-11T21:50:39.314Z,101055.23
2018-10-11T21:53:43.254Z,101057.44
2018-10-11T21:56:47.203Z,101058.81
2018-10-11T21:59:51.204Z,101060.66
2018-10-11T22:02:55.271Z,101064.16
2018-10-11T22:05:59.185Z,101065.16
2018-10-11T22:09:03.176Z,101070.32
2018-10-11T22:12:07.446Z,101069.95
2018-10-11T22:15:11.484Z,101076.85
2018-10-11T22:18:15.890Z,101085.11
2018-10-11T22:21:19.821Z,101078.74
2018-10-11T22:24:23.818Z,101078.83
2018-10-11T22:27:27.743Z,101066.85
2018-10-11T22:30:31.678Z,101062.23
2018-10-11T22:33:35.634Z,101062.70
2018-10-11T22:36:39.591Z,101064.53
2018-10-11T22:39:43.697Z,101059.83
2018-10-11T22:42:47.618Z,101063.38
2018-10-11T22:45:51.571Z,101062.18
2018-10-11T22:48:55.518Z,101068.72
2018-10-11T22:51:59.476Z,101069.26
2018-10-11T22:55:03.582Z,101069.25
2018-10-11T22:58:07.848Z,101073.41
2018-10-11T23:01:12.089Z,101075.61
2018-10-11T23:04:16.026Z,101083.44
2018-10-11T23:07:20.179Z,101077.62
2018-10-11T23:10:24.102Z,101083.31
2018-10-11T23:13:28.023Z,101078.67
2018-10-11T23:16:31.931Z,101077.01
2018-10-11T23:19:35.887Z,101075.05
2018-10-11T23:22:41.202Z,101074.77
2018-10-11T23:25:45.476Z,101070.90
2018-10-11T23:28:49.421Z,101065.83
2018-10-11T23:31:53.505Z,101059.97
2018-10-11T23:34:57.469Z,101070.38
2018-10-11T23:38:01.412Z,101072.58
2018-10-11T23:41:05.447Z,101069.25
2018-10-11T23:44:09.855Z,101074.86
2018-10-11T23:47:14.139Z,101072.45
2018-10-11T23:50:18.070Z,101069.09
2018-10-11T23:53:21.999Z,101068.64
2018-10-11T23:56:26.091Z,101067.44
2018-10-11T23:59:30.054Z,101059.86
